createdAt,value
2019-05-10T00:00:20.300Z,23.47
2019-05-10T00:05:43.249Z,22.50
2019-05-10T00:10:52.824Z,22.60
2019-05-10T00:15:57.654Z,22.43
2019-05-10T00:21:02.782Z,22.33
2019-05-10T00:26:07.786Z,21.77
2019-05-10T00:31:12.554Z,23.00
2019-05-10T00:36:17.384Z,22.47
2019-05-10T00:41:22.144Z,24.23
2019-05-10T00:46:26.986Z,23.07
2019-05-10T00:51:31.830Z,24.97
2019-05-10T00:56:36.678Z,23.00
2019-05-10T01:01:41.524Z,25.07
2019-05-10T01:06:46.969Z,25.07
2019-05-10T01:11:52.308Z,23.30
2019-05-10T01:16:57.733Z,23.50
2019-05-10T01:22:03.159Z,22.40
2019-05-10T01:27:07.995Z,23.17
2019-05-10T01:32:12.938Z,26.07
2019-05-10T01:37:17.695Z,25.47
2019-05-10T01:42:22.539Z,25.57
2019-05-10T01:47:27.288Z,28.13
2019-05-10T01:52:32.125Z,29.10
2019-05-10T01:57:36.949Z,29.90
2019-05-10T02:02:41.808Z,29.37
2019-05-10T02:07:46.638Z,27.77
2019-05-10T02:12:51.490Z,30.07
2019-05-10T02:17:56.336Z,29.10
2019-05-10T02:23:01.202Z,30.97
2019-05-10T02:28:06.042Z,31.70
2019-05-10T02:33:10.881Z,30.03
2019-05-10T02:38:15.708Z,30.83
2019-05-10T02:43:20.556Z,29.40
2019-05-10T02:48:25.394Z,31.97
2019-05-10T02:53:30.225Z,31.97
2019-05-10T02:58:35.068Z,29.93
2019-05-10T03:03:42.916Z,28.37
2019-05-10T03:08:52.265Z,27.53
2019-05-10T03:14:17.835Z,32.10
2019-05-10T03:19:23.563Z,31.77
2019-05-10T03:24:28.565Z,30.13
2019-05-10T03:29:33.430Z,32.17
2019-05-10T03:34:38.248Z,32.13
2019-05-10T03:39:43.069Z,34.10
2019-05-10T03:44:47.924Z,34.90
2019-05-10T03:49:52.769Z,34.60
2019-05-10T03:54:57.618Z,36.27
2019-05-10T04:00:02.449Z,38.23
2019-05-10T04:05:07.886Z,38.13
2019-05-10T04:10:13.839Z,34.13
2019-05-10T04:15:18.688Z,35.00
2019-05-10T04:20:23.519Z,35.17
2019-05-10T04:25:28.423Z,32.10
2019-05-10T04:30:33.253Z,32.67
2019-05-10T04:35:38.083Z,32.90
2019-05-10T04:40:42.922Z,31.93
2019-05-10T04:45:47.762Z,31.57
2019-05-10T04:50:52.584Z,32.67
2019-05-10T04:55:57.440Z,31.60
2019-05-10T05:01:03.539Z,32.23
2019-05-10T05:06:08.373Z,32.60
2019-05-10T05:11:13.216Z,32.70
2019-05-10T05:16:18.122Z,31.53
2019-05-10T05:21:22.973Z,30.90
2019-05-10T05:26:27.665Z,35.07
2019-05-10T05:31:32.507Z,34.40
2019-05-10T05:36:37.260Z,34.07
2019-05-10T05:41:49.284Z,33.07
2019-05-10T05:46:48.677Z,32.03
2019-05-10T05:51:53.518Z,30.73
2019-05-10T05:56:58.277Z,31.30
2019-05-10T06:02:07.421Z,29.97
2019-05-10T06:07:09.504Z,29.07
2019-05-10T06:12:14.596Z,29.33
2019-05-10T06:17:23.778Z,32.60
2019-05-10T06:22:25.879Z,29.53
2019-05-10T06:27:30.654Z,31.10
2019-05-10T06:32:35.503Z,33.00
2019-05-10T06:37:40.361Z,32.93
2019-05-10T06:42:45.311Z,38.77
2019-05-10T06:47:53.284Z,40.77
2019-05-10T06:53:00.494Z,43.50
2019-05-10T06:58:03.427Z,40.97
2019-05-10T07:03:08.264Z,41.53
2019-05-10T07:08:19.726Z,44.07
2019-05-10T07:13:19.549Z,43.07
2019-05-10T07:18:24.401Z,39.93
2019-05-10T07:23:30.178Z,38.97
2019-05-10T07:28:35.305Z,34.37
2019-05-10T07:33:40.316Z,36.23
2019-05-10T07:38:45.176Z,37.67
2019-05-10T07:43:50.138Z,37.07
2019-05-10T07:48:54.843Z,35.53
2019-05-10T07:54:04.537Z,32.97
2019-05-10T07:59:06.356Z,35.40
2019-05-10T08:04:12.985Z,31.87
2019-05-10T08:09:19.228Z,33.63
2019-05-10T08:14:25.460Z,26.77
2019-05-10T08:19:32.814Z,28.20
2019-05-10T08:24:37.082Z,27.10
2019-05-10T08:29:42.906Z,25.17
2019-05-10T08:34:53.060Z,25.07
2019-05-10T08:39:56.033Z,26.10
2019-05-10T08:45:05.450Z,21.57
2019-05-10T08:50:22.530Z,19.90
2019-05-10T08:55:14.375Z,19.53
2019-05-10T09:00:37.143Z,23.87
2019-05-10T09:05:28.936Z,19.47
2019-05-10T09:10:32.409Z,23.60
2019-05-10T09:15:43.273Z,23.57
2019-05-10T09:20:43.909Z,21.37
2019-05-10T09:25:51.712Z,19.60
2019-05-10T09:31:00.670Z,18.23
2019-05-10T09:36:02.958Z,19.60
2019-05-10T09:41:08.057Z,17.13
2019-05-10T09:46:14.137Z,16.43
2019-05-10T09:51:27.955Z,16.47
2019-05-10T09:56:27.609Z,13.93
2019-05-10T10:01:32.518Z,13.73
2019-05-10T10:06:41.800Z,13.40
2019-05-10T10:11:48.084Z,12.50
2019-05-10T10:16:58.203Z,14.37
2019-05-10T10:21:57.654Z,13.20
2019-05-10T10:27:02.672Z,12.57
2019-05-10T10:32:08.020Z,13.23
2019-05-10T10:37:14.691Z,15.87
2019-05-10T10:42:19.601Z,16.63
2019-05-10T10:47:30.445Z,12.57
2019-05-10T10:52:30.959Z,16.03
2019-05-10T10:57:37.399Z,14.23
2019-05-10T11:02:46.768Z,14.00
2019-05-10T11:07:51.044Z,10.73
2019-05-10T11:12:56.278Z,10.53
2019-05-10T11:18:01.823Z,11.80
2019-05-10T11:23:06.596Z,9.03
2019-05-10T11:28:12.020Z,10.40
2019-05-10T11:33:33.659Z,10.77
2019-05-10T11:38:37.410Z,9.53
2019-05-10T11:43:43.586Z,12.00
2019-05-10T11:48:50.734Z,9.33
2019-05-10T11:53:59.513Z,11.33
2019-05-10T11:59:04.737Z,10.87
2019-05-10T12:04:13.116Z,10.63
2019-05-10T12:09:14.227Z,9.90
2019-05-10T12:14:36.729Z,10.13
2019-05-10T12:19:47.875Z,8.57
2019-05-10T12:25:14.144Z,8.10
2019-05-10T12:29:59.526Z,10.60
2019-05-10T12:35:01.433Z,10.67
2019-05-10T12:40:11.865Z,7.63
2019-05-10T12:45:14.530Z,7.10
2019-05-10T12:50:20.896Z,8.33
2019-05-10T12:55:25.740Z,7.17
2019-05-10T13:00:30.749Z,7.03
2019-05-10T13:05:51.080Z,7.23
2019-05-10T13:10:43.293Z,6.97
2019-05-10T13:15:48.747Z,7.00
2019-05-10T13:20:53.620Z,6.13
2019-05-10T13:25:58.554Z,6.37
2019-05-10T13:31:05.696Z,6.97
2019-05-10T13:36:09.885Z,7.03
2019-05-10T13:41:17.740Z,5.80
2019-05-10T13:46:21.321Z,6.40
2019-05-10T13:51:26.187Z,5.20
2019-05-10T13:56:30.973Z,4.17
2019-05-10T14:01:35.940Z,4.00
2019-05-10T14:06:40.821Z,4.17
2019-05-10T14:11:46.947Z,3.47
2019-05-10T14:16:52.356Z,3.60
2019-05-10T14:21:57.180Z,3.83
2019-05-10T14:27:01.947Z,4.93
2019-05-10T14:32:10.421Z,3.57
2019-05-10T14:37:19.788Z,3.90
2019-05-10T14:42:30.347Z,4.17
2019-05-10T14:47:28.586Z,3.63
2019-05-10T14:52:33.426Z,3.17
2019-05-10T14:57:38.450Z,2.83
2019-05-10T15:02:43.542Z,9.20
2019-05-10T15:07:51.057Z,4.23
2019-05-10T15:12:55.109Z,5.70
2019-05-10T15:18:01.854Z,5.67
2019-05-10T15:23:06.668Z,72.80
2019-05-10T15:28:11.513Z,11.73
2019-05-10T15:33:17.844Z,34.37
2019-05-10T15:38:22.708Z,21.73
2019-05-10T15:43:27.537Z,3.93
2019-05-10T15:48:36.517Z,15.27
2019-05-10T15:53:39.104Z,30.50
2019-05-10T15:58:43.917Z,64.93
2019-05-10T16:03:48.674Z,9.93
2019-05-10T16:08:54.048Z,36.50
2019-05-10T16:14:00.150Z,9.17
2019-05-10T16:19:05.370Z,10.03
2019-05-10T16:24:13.387Z,13.57
2019-05-10T16:29:16.656Z,6.77
2019-05-10T16:34:26.504Z,8.30
2019-05-10T16:39:27.949Z,7.03
2019-05-10T16:44:32.823Z,4.40
2019-05-10T16:49:37.644Z,2.40
2019-05-10T16:54:44.316Z,2.77
2019-05-10T16:59:49.443Z,3.20
2019-05-10T17:04:54.614Z,2.43
2019-05-10T17:09:59.631Z,2.53
2019-05-10T17:15:05.434Z,2.33
2019-05-10T17:20:15.859Z,4.53
2019-05-10T17:25:17.854Z,3.67
2019-05-10T17:30:27.601Z,3.30
2019-05-10T17:35:29.266Z,12.47
2019-05-10T17:40:34.304Z,25.57
2019-05-10T17:45:40.512Z,7.67
2019-05-10T17:50:45.996Z,6.17
2019-05-10T17:55:56.482Z,6.27
2019-05-10T18:00:57.677Z,4.27
2019-05-10T18:06:02.713Z,5.13
2019-05-10T18:11:07.576Z,4.70
2019-05-10T18:16:12.434Z,5.50
2019-05-10T18:21:21.760Z,8.83
2019-05-10T18:26:23.769Z,12.27
2019-05-10T18:31:28.710Z,12.13
2019-05-10T18:36:50.499Z,10.37
2019-05-10T18:41:50.288Z,10.60
2019-05-10T18:46:56.615Z,11.17
2019-05-10T18:52:04.547Z,8.90
2019-05-10T18:57:12.333Z,7.70
2019-05-10T19:02:17.696Z,9.40
2019-05-10T19:07:20.752Z,10.20
2019-05-10T19:12:26.070Z,9.67
2019-05-10T19:17:31.279Z,8.60
2019-05-10T19:22:41.336Z,9.50
2019-05-10T19:27:44.151Z,10.43
2019-05-10T19:32:51.127Z,12.83
2019-05-10T19:37:55.740Z,11.93
2019-05-10T19:43:00.582Z,10.17
2019-05-10T19:48:06.017Z,8.53
2019-05-10T19:53:11.351Z,12.97
2019-05-10T19:58:16.181Z,11.43
2019-05-10T20:03:20.951Z,12.63
2019-05-10T20:08:25.784Z,14.33
2019-05-10T20:13:30.541Z,5.73
2019-05-10T20:18:35.460Z,4.63
2019-05-10T20:23:40.295Z,4.43
2019-05-10T20:28:45.146Z,5.40
2019-05-10T20:33:50.113Z,6.07
2019-05-10T20:38:54.951Z,8.90
2019-05-10T20:43:59.798Z,12.63
2019-05-10T20:49:04.669Z,14.30
2019-05-10T20:54:10.115Z,18.37
2019-05-10T20:59:14.801Z,17.17
2019-05-10T21:04:19.524Z,12.60
2019-05-10T21:09:24.333Z,12.53
2019-05-10T21:14:29.133Z,16.53
2019-05-10T21:19:34.059Z,9.20
2019-05-10T21:24:38.941Z,9.67
2019-05-10T21:29:43.782Z,14.37
2019-05-10T21:34:48.660Z,10.43
2019-05-10T21:39:53.530Z,10.33
2019-05-10T21:44:58.329Z,10.47
2019-05-10T21:50:03.589Z,9.63
2019-05-10T21:55:21.055Z,9.67
2019-05-10T22:00:27.892Z,10.83
2019-05-10T22:05:32.713Z,11.13
2019-05-10T22:10:37.562Z,10.17
2019-05-10T22:15:42.407Z,9.83
2019-05-10T22:20:47.333Z,8.83
2019-05-10T22:25:52.088Z,8.80
2019-05-10T22:30:56.934Z,9.47
2019-05-10T22:36:01.784Z,10.60
2019-05-10T22:41:06.541Z,11.80
2019-05-10T22:46:11.305Z,11.30
2019-05-10T22:51:16.145Z,13.60
2019-05-10T22:56:20.978Z,16.07
2019-05-10T23:01:25.779Z,21.47
2019-05-10T23:06:30.642Z,18.70
2019-05-10T23:11:35.466Z,24.73
2019-05-10T23:16:40.267Z,17.83
2019-05-10T23:21:45.286Z,18.60
2019-05-10T23:26:50.186Z,20.33
2019-05-10T23:31:55.040Z,16.57
2019-05-10T23:36:59.916Z,14.23
2019-05-10T23:42:04.808Z,15.00
2019-05-10T23:47:10.201Z,15.40
2019-05-10T23:52:15.018Z,14.77
2019-05-10T23:57:19.810Z,14.07
